createdAt,value
2022-12-26T00:00:47.778Z,4.17
2022-12-26T00:03:15.279Z,3.33
2022-12-26T00:05:42.519Z,3.60
2022-12-26T00:08:09.570Z,3.43
2022-12-26T00:10:36.657Z,3.50
2022-12-26T00:13:39.353Z,3.37
2022-12-26T00:15:50.833Z,3.70
2022-12-26T00:18:17.954Z,3.77
2022-12-26T00:20:45.002Z,3.87
2022-12-26T00:23:12.086Z,3.60
2022-12-26T00:25:39.140Z,3.50
2022-12-26T00:28:06.219Z,3.87
2022-12-26T00:30:33.287Z,3.43
2022-12-26T00:33:00.340Z,3.70
2022-12-26T00:35:27.438Z,3.47
2022-12-26T00:37:54.490Z,3.23
2022-12-26T00:40:21.574Z,3.67
2022-12-26T00:42:48.607Z,3.47
2022-12-26T00:45:15.711Z,4.30
2022-12-26T00:47:42.865Z,3.67
2022-12-26T00:50:14.900Z,3.87
2022-12-26T00:52:42.682Z,4.07
2022-12-26T00:55:10.264Z,3.47
2022-12-26T00:57:37.410Z,3.80
2022-12-26T01:00:05.541Z,4.00
2022-12-26T01:02:38.869Z,3.80
2022-12-26T01:05:07.436Z,3.93
2022-12-26T01:07:35.438Z,4.20
2022-12-26T01:10:22.473Z,4.10
2022-12-26T01:12:49.537Z,4.07
2022-12-26T01:15:16.612Z,4.20
2022-12-26T01:17:43.665Z,4.23
2022-12-26T01:20:10.934Z,3.80
2022-12-26T01:22:38.036Z,4.23
2022-12-26T01:25:05.331Z,3.93
2022-12-26T01:27:32.369Z,3.80
2022-12-26T01:29:59.450Z,3.60
2022-12-26T01:32:26.495Z,3.83
2022-12-26T01:34:55.595Z,3.90
2022-12-26T01:37:23.492Z,3.87
2022-12-26T01:39:50.619Z,3.93
2022-12-26T01:42:18.791Z,3.87
2022-12-26T01:45:00.873Z,4.23
2022-12-26T01:47:37.398Z,3.90
2022-12-26T01:50:05.574Z,4.07
2022-12-26T01:52:38.973Z,4.17
2022-12-26T01:55:07.222Z,4.37
2022-12-26T01:57:40.639Z,4.50
2022-12-26T02:00:08.074Z,4.20
2022-12-26T02:02:55.146Z,4.07
2022-12-26T02:05:35.126Z,4.17
2022-12-26T02:08:04.516Z,3.90
2022-12-26T02:10:34.504Z,3.90
2022-12-26T02:13:02.099Z,3.93
2022-12-26T02:15:29.378Z,4.23
2022-12-26T02:17:56.443Z,3.97
2022-12-26T02:20:25.455Z,3.60
2022-12-26T02:23:04.421Z,3.80
2022-12-26T02:25:51.729Z,4.23
2022-12-26T02:28:21.612Z,3.90
2022-12-26T02:31:21.216Z,3.47
2022-12-26T02:33:55.980Z,3.50
2022-12-26T02:36:32.135Z,3.40
2022-12-26T02:39:02.135Z,3.70
2022-12-26T02:42:08.128Z,3.90
2022-12-26T02:45:08.145Z,3.97
2022-12-26T02:47:53.633Z,4.07
2022-12-26T02:50:58.385Z,4.07
2022-12-26T02:54:09.892Z,4.00
2022-12-26T02:56:56.762Z,4.23
2022-12-26T02:59:55.759Z,4.10
2022-12-26T03:02:56.374Z,3.90
2022-12-26T03:05:48.128Z,4.10
2022-12-26T03:08:38.207Z,4.20
2022-12-26T03:11:24.135Z,3.73
2022-12-26T03:13:52.004Z,4.20
2022-12-26T03:16:38.953Z,3.87
2022-12-26T03:19:08.961Z,3.87
2022-12-26T03:21:39.556Z,3.97
2022-12-26T03:24:08.200Z,4.30
2022-12-26T03:26:42.062Z,4.30
2022-12-26T03:29:33.093Z,3.40
2022-12-26T03:32:00.858Z,3.90
2022-12-26T03:34:28.360Z,3.53
2022-12-26T03:37:14.335Z,3.70
2022-12-26T03:40:10.008Z,3.40
2022-12-26T03:43:16.145Z,3.70
2022-12-26T03:46:04.521Z,3.30
2022-12-26T03:49:11.681Z,3.60
2022-12-26T03:52:12.208Z,3.30
2022-12-26T03:55:02.261Z,3.23
2022-12-26T03:57:53.006Z,3.50
2022-12-26T04:00:38.985Z,3.70
2022-12-26T04:03:27.391Z,3.40
2022-12-26T04:06:14.473Z,3.67
2022-12-26T04:09:06.049Z,3.03
2022-12-26T04:11:53.559Z,3.07
2022-12-26T04:14:53.967Z,3.10
2022-12-26T04:17:52.686Z,3.70
2022-12-26T04:20:28.249Z,3.60
2022-12-26T04:23:17.518Z,3.40
2022-12-26T04:26:12.046Z,3.43
2022-12-26T04:28:57.876Z,3.57
2022-12-26T04:31:47.370Z,3.60
2022-12-26T04:34:47.649Z,3.17
2022-12-26T04:37:37.611Z,3.30
2022-12-26T04:40:26.440Z,2.87
2022-12-26T04:43:47.225Z,3.33
2022-12-26T04:45:59.669Z,3.20
2022-12-26T04:48:45.613Z,2.93
2022-12-26T04:51:12.684Z,3.10
2022-12-26T04:53:39.721Z,2.90
2022-12-26T04:56:06.891Z,2.67
2022-12-26T04:58:33.919Z,2.53
2022-12-26T05:01:21.118Z,2.00
2022-12-26T05:04:06.935Z,1.70
2022-12-26T05:06:53.014Z,1.90
2022-12-26T05:09:35.994Z,1.40
2022-12-26T05:12:04.543Z,1.30
2022-12-26T05:14:31.725Z,1.30
2022-12-26T05:17:17.970Z,1.20
2022-12-26T05:20:03.825Z,1.50
2022-12-26T05:22:50.777Z,1.20
2022-12-26T05:25:38.277Z,1.20
2022-12-26T05:28:24.171Z,1.10
2022-12-26T05:30:51.301Z,1.20
2022-12-26T05:33:36.907Z,1.17
2022-12-26T05:36:04.141Z,1.20
2022-12-26T05:38:31.178Z,1.20
2022-12-26T05:40:58.247Z,1.57
2022-12-26T05:43:25.302Z,1.50
2022-12-26T05:45:52.393Z,1.30
2022-12-26T05:48:19.463Z,1.40
2022-12-26T05:50:46.760Z,1.60
2022-12-26T05:53:13.820Z,1.47
2022-12-26T05:55:41.120Z,1.30
2022-12-26T05:58:08.190Z,1.27
2022-12-26T06:00:35.415Z,1.50
2022-12-26T06:03:02.751Z,1.50
2022-12-26T06:05:29.949Z,1.30
2022-12-26T06:07:56.991Z,1.33
2022-12-26T06:10:26.203Z,1.60
2022-12-26T06:12:53.736Z,1.40
2022-12-26T06:15:20.772Z,1.40
2022-12-26T06:17:47.827Z,1.20
2022-12-26T06:20:14.999Z,1.37
2022-12-26T06:22:42.116Z,1.57
2022-12-26T06:25:09.433Z,1.23
2022-12-26T06:27:36.550Z,1.80
2022-12-26T06:30:03.752Z,2.13
2022-12-26T06:32:30.864Z,1.90
2022-12-26T06:34:57.917Z,1.97
2022-12-26T06:37:24.970Z,1.93
2022-12-26T06:39:52.049Z,1.80
2022-12-26T06:42:19.110Z,1.90
2022-12-26T06:44:46.152Z,2.07
2022-12-26T06:47:13.279Z,1.80
2022-12-26T06:49:40.354Z,1.70
2022-12-26T06:52:08.375Z,1.70
2022-12-26T06:54:35.529Z,1.83
2022-12-26T06:57:02.649Z,1.97
2022-12-26T06:59:29.723Z,1.73
2022-12-26T07:01:56.907Z,1.90
2022-12-26T07:04:24.855Z,1.97
2022-12-26T07:06:51.950Z,1.90
2022-12-26T07:09:19.902Z,1.70
2022-12-26T07:11:48.311Z,1.40
2022-12-26T07:14:15.832Z,1.40
2022-12-26T07:16:44.449Z,1.43
2022-12-26T07:19:12.517Z,1.60
2022-12-26T07:21:41.044Z,1.40
2022-12-26T07:24:14.383Z,1.50
2022-12-26T07:26:41.572Z,1.70
2022-12-26T07:29:10.929Z,1.40
2022-12-26T07:31:38.042Z,1.30
2022-12-26T07:34:05.131Z,1.40
2022-12-26T07:36:32.247Z,1.50
2022-12-26T07:38:59.301Z,1.30
2022-12-26T07:41:45.297Z,1.60
2022-12-26T07:44:12.506Z,1.50
2022-12-26T07:46:39.653Z,1.47
2022-12-26T07:49:06.901Z,1.53
2022-12-26T07:51:34.011Z,1.33
2022-12-26T07:54:05.505Z,1.10
2022-12-26T07:56:36.719Z,1.50
2022-12-26T07:59:03.836Z,1.40
2022-12-26T08:01:31.143Z,1.37
2022-12-26T08:03:58.362Z,1.30
2022-12-26T08:06:25.575Z,1.30
2022-12-26T08:08:52.665Z,1.27
2022-12-26T08:11:22.086Z,1.20
2022-12-26T08:13:49.503Z,1.40
2022-12-26T08:16:17.095Z,1.43
2022-12-26T08:18:44.418Z,1.33
2022-12-26T08:21:12.164Z,1.20
2022-12-26T08:23:39.386Z,1.20
2022-12-26T08:26:07.326Z,1.43
2022-12-26T08:28:34.600Z,1.23
2022-12-26T08:31:05.686Z,1.23
2022-12-26T08:33:32.723Z,1.13
2022-12-26T08:36:07.036Z,1.20
2022-12-26T08:38:34.329Z,1.30
2022-12-26T08:41:01.514Z,1.57
2022-12-26T08:46:15.707Z,1.40
2022-12-26T08:48:42.850Z,1.20
2022-12-26T08:51:13.214Z,1.20
2022-12-26T08:53:40.298Z,1.40
2022-12-26T08:56:11.168Z,1.17
2022-12-26T08:58:38.242Z,1.43
2022-12-26T09:01:10.414Z,1.60
2022-12-26T09:03:38.747Z,1.23
2022-12-26T09:06:06.740Z,1.07
2022-12-26T09:08:35.049Z,1.37
2022-12-26T09:11:03.213Z,1.30
2022-12-26T09:13:30.336Z,1.40
2022-12-26T09:16:03.471Z,1.27
2022-12-26T09:18:31.668Z,1.50
2022-12-26T09:21:02.866Z,1.57
2022-12-26T09:23:30.682Z,1.43
2022-12-26T09:26:04.290Z,1.43
2022-12-26T09:28:31.388Z,1.30
2022-12-26T09:31:06.308Z,1.43
2022-12-26T09:33:33.779Z,1.50
2022-12-26T09:36:04.517Z,1.47
2022-12-26T09:38:34.672Z,1.77
2022-12-26T09:41:16.768Z,1.63
2022-12-26T09:43:50.034Z,1.50
2022-12-26T09:46:35.091Z,1.57
2022-12-26T09:49:02.198Z,1.43
2022-12-26T09:51:31.002Z,1.40
2022-12-26T09:53:59.211Z,1.50
2022-12-26T09:59:16.050Z,1.50
2022-12-26T10:01:43.574Z,1.30
2022-12-26T10:04:28.419Z,1.50
2022-12-26T10:07:05.726Z,1.67
2022-12-26T10:09:35.583Z,1.63
2022-12-26T10:12:02.622Z,1.57
2022-12-26T10:14:29.666Z,1.70
2022-12-26T10:17:04.480Z,1.40
2022-12-26T10:19:32.890Z,1.50
2022-12-26T10:22:13.063Z,1.63
2022-12-26T10:24:41.531Z,1.43
2022-12-26T10:27:14.942Z,1.73
2022-12-26T10:29:43.918Z,1.40
2022-12-26T10:32:13.834Z,1.60
2022-12-26T10:34:42.402Z,1.40
2022-12-26T10:37:12.457Z,1.33
2022-12-26T10:39:52.342Z,1.37
2022-12-26T10:42:25.155Z,1.10
2022-12-26T10:44:52.247Z,1.33
2022-12-26T10:47:31.278Z,1.50
2022-12-26T10:49:59.872Z,1.50
2022-12-26T10:52:31.156Z,1.30
2022-12-26T10:55:28.118Z,1.70
2022-12-26T10:57:48.135Z,1.50
2022-12-26T11:00:18.881Z,1.50
2022-12-26T11:02:46.115Z,1.27
2022-12-26T11:05:40.382Z,1.43
2022-12-26T11:08:09.996Z,1.50
2022-12-26T11:10:37.746Z,1.67
2022-12-26T11:13:07.887Z,1.40
2022-12-26T11:16:01.066Z,1.50
2022-12-26T11:18:31.252Z,1.40
2022-12-26T11:21:12.937Z,1.70
2022-12-26T11:23:40.189Z,1.30
2022-12-26T11:26:20.280Z,1.23
2022-12-26T11:28:47.394Z,1.33
2022-12-26T11:31:31.405Z,1.40
2022-12-26T11:33:59.428Z,1.50
2022-12-26T11:36:28.372Z,1.57
2022-12-26T11:38:57.156Z,1.30
2022-12-26T11:41:32.876Z,1.50
2022-12-26T11:44:06.119Z,1.57
2022-12-26T11:46:38.757Z,1.20
2022-12-26T11:49:06.521Z,1.30
2022-12-26T11:51:34.819Z,1.43
2022-12-26T11:54:20.477Z,1.50
2022-12-26T11:56:47.548Z,1.27
2022-12-26T11:59:22.636Z,1.30
2022-12-26T12:02:09.713Z,1.50
2022-12-26T12:04:36.849Z,1.10
2022-12-26T12:07:07.953Z,1.27
2022-12-26T12:09:51.117Z,1.03
2022-12-26T12:12:30.297Z,1.10
2022-12-26T12:15:04.403Z,0.87
2022-12-26T12:17:46.697Z,1.20
2022-12-26T12:20:33.875Z,1.17
2022-12-26T12:23:19.605Z,1.07
2022-12-26T12:26:06.966Z,0.90
2022-12-26T12:28:40.311Z,1.27
2022-12-26T12:31:14.975Z,1.20
2022-12-26T12:34:00.559Z,1.10
2022-12-26T12:36:40.598Z,0.90
2022-12-26T12:39:20.228Z,0.90
2022-12-26T12:42:02.749Z,1.20
2022-12-26T12:44:38.673Z,0.97
2022-12-26T12:47:05.749Z,0.90
2022-12-26T12:49:35.852Z,1.10
2022-12-26T12:52:08.713Z,1.10
2022-12-26T12:54:54.492Z,1.07
2022-12-26T12:57:30.810Z,0.80
2022-12-26T13:00:03.602Z,6.20
2022-12-26T13:02:57.146Z,1.80
2022-12-26T13:05:30.258Z,1.10
2022-12-26T13:08:00.747Z,1.10
2022-12-26T13:10:33.238Z,0.60
2022-12-26T13:13:03.029Z,0.40
2022-12-26T13:15:35.859Z,0.50
2022-12-26T13:18:06.768Z,0.20
2022-12-26T13:20:45.807Z,0.30
2022-12-26T13:23:34.234Z,0.50
2022-12-26T13:26:07.184Z,2.13
2022-12-26T13:28:36.921Z,1.13
2022-12-26T13:31:04.190Z,0.40
2022-12-26T13:33:31.745Z,0.50
2022-12-26T13:36:00.132Z,0.60
2022-12-26T13:38:53.897Z,0.60
2022-12-26T13:41:40.246Z,0.40
2022-12-26T13:44:19.208Z,0.37
2022-12-26T13:46:46.272Z,0.27
2022-12-26T13:49:36.080Z,0.50
2022-12-26T13:52:12.162Z,0.50
2022-12-26T13:54:59.243Z,0.50
2022-12-26T13:57:45.648Z,0.40
2022-12-26T14:00:15.767Z,0.60
2022-12-26T14:03:16.184Z,0.53
2022-12-26T14:05:38.808Z,0.57
2022-12-26T14:08:33.213Z,1.00
2022-12-26T14:11:19.160Z,0.80
2022-12-26T14:13:56.437Z,0.60
2022-12-26T14:16:24.024Z,2.80
2022-12-26T14:18:59.583Z,12.23
2022-12-26T14:21:32.141Z,1.43
2022-12-26T14:24:05.249Z,0.97
2022-12-26T14:26:46.545Z,0.70
2022-12-26T14:29:13.594Z,1.00
2022-12-26T14:31:43.479Z,1.10
2022-12-26T14:34:19.612Z,1.00
2022-12-26T14:36:52.631Z,0.73
2022-12-26T14:39:28.528Z,0.70
2022-12-26T14:42:26.245Z,0.70
2022-12-26T14:44:53.393Z,0.80
2022-12-26T14:47:37.263Z,0.90
2022-12-26T14:50:23.128Z,0.63
2022-12-26T14:52:50.251Z,0.70
2022-12-26T14:55:49.701Z,0.60
2022-12-26T14:58:25.164Z,0.70
2022-12-26T15:00:52.545Z,0.80
2022-12-26T15:03:38.320Z,0.50
2022-12-26T15:06:18.402Z,0.57
2022-12-26T15:08:54.605Z,0.70
2022-12-26T15:11:40.191Z,1.00
2022-12-26T15:14:26.129Z,0.80
2022-12-26T15:17:12.059Z,1.00
2022-12-26T15:19:57.943Z,1.20
2022-12-26T15:22:48.039Z,1.13
2022-12-26T15:25:33.799Z,1.40
2022-12-26T15:28:11.993Z,1.47
2022-12-26T15:30:48.444Z,1.70
2022-12-26T15:33:20.388Z,1.23
2022-12-26T15:35:51.058Z,1.40
2022-12-26T15:38:28.780Z,1.60
2022-12-26T15:41:17.141Z,1.20
2022-12-26T15:43:57.583Z,1.40
2022-12-26T15:46:31.036Z,1.40
2022-12-26T15:49:07.425Z,1.30
2022-12-26T15:51:40.734Z,1.40
2022-12-26T15:54:22.886Z,1.30
2022-12-26T15:56:52.759Z,1.33
2022-12-26T15:59:22.561Z,1.50
2022-12-26T16:01:53.308Z,1.13
2022-12-26T16:04:27.884Z,0.90
2022-12-26T16:07:13.714Z,0.90
2022-12-26T16:09:48.056Z,1.50
2022-12-26T16:12:22.580Z,1.70
2022-12-26T16:14:49.791Z,1.07
2022-12-26T16:17:16.857Z,2.20
2022-12-26T16:19:45.392Z,1.70
2022-12-26T16:22:43.895Z,2.33
2022-12-26T16:25:12.847Z,2.10
2022-12-26T16:27:40.335Z,2.27
2022-12-26T16:30:12.260Z,1.60
2022-12-26T16:32:41.121Z,2.20
2022-12-26T16:35:15.461Z,2.40
2022-12-26T16:37:43.630Z,1.80
2022-12-26T16:40:22.181Z,2.70
2022-12-26T16:42:57.631Z,2.90
2022-12-26T16:45:25.516Z,2.00
2022-12-26T16:47:53.042Z,1.50
2022-12-26T16:50:21.539Z,1.70
2022-12-26T16:52:48.642Z,2.03
2022-12-26T16:55:25.533Z,1.50
2022-12-26T16:57:56.208Z,2.60
2022-12-26T17:00:23.798Z,4.30
2022-12-26T17:02:52.966Z,2.13
2022-12-26T17:05:26.253Z,1.80
2022-12-26T17:07:54.193Z,2.40
2022-12-26T17:10:23.164Z,1.60
2022-12-26T17:12:50.404Z,1.47
2022-12-26T17:15:21.971Z,1.60
2022-12-26T17:17:49.341Z,1.53
2022-12-26T17:20:22.495Z,1.40
2022-12-26T17:22:53.415Z,1.50
2022-12-26T17:25:29.524Z,1.40
2022-12-26T17:28:09.163Z,1.40
2022-12-26T17:30:37.406Z,1.40
2022-12-26T17:33:06.322Z,1.50
2022-12-26T17:36:21.386Z,1.67
2022-12-26T17:38:26.459Z,1.30
2022-12-26T17:40:55.068Z,1.37
2022-12-26T17:43:24.053Z,1.10
2022-12-26T17:45:51.225Z,1.40
2022-12-26T17:48:18.549Z,1.70
2022-12-26T17:50:47.471Z,1.50
2022-12-26T17:53:14.513Z,1.60
2022-12-26T17:55:42.037Z,1.70
2022-12-26T17:58:18.107Z,1.50
2022-12-26T18:00:45.662Z,1.23
2022-12-26T18:03:13.166Z,1.40
2022-12-26T18:05:40.582Z,1.70
2022-12-26T18:08:08.167Z,1.70
2022-12-26T18:10:36.862Z,1.70
2022-12-26T18:13:04.198Z,1.37
2022-12-26T18:15:31.833Z,1.17
2022-12-26T18:17:59.203Z,1.30
2022-12-26T18:20:27.901Z,1.57
2022-12-26T18:22:55.067Z,1.20
2022-12-26T18:25:23.590Z,1.17
2022-12-26T18:27:51.536Z,1.10
2022-12-26T18:30:19.973Z,1.60
2022-12-26T18:32:47.964Z,1.80
2022-12-26T18:35:15.342Z,2.07
2022-12-26T18:37:44.790Z,1.10
2022-12-26T18:40:24.533Z,1.20
2022-12-26T18:42:51.636Z,0.67
2022-12-26T18:45:18.668Z,0.90
2022-12-26T18:47:45.726Z,1.00
2022-12-26T18:50:13.863Z,0.90
2022-12-26T18:52:40.943Z,1.10
2022-12-26T18:55:08.280Z,0.80
2022-12-26T18:57:35.915Z,0.63
2022-12-26T19:00:03.231Z,0.70
2022-12-26T19:02:30.393Z,0.53
2022-12-26T19:04:57.431Z,0.70
2022-12-26T19:07:24.503Z,0.60
2022-12-26T19:09:55.619Z,0.67
2022-12-26T19:12:23.509Z,0.60
2022-12-26T19:14:50.756Z,0.73
2022-12-26T19:17:17.952Z,0.70
2022-12-26T19:19:45.307Z,0.50
2022-12-26T19:22:12.386Z,0.80
2022-12-26T19:24:39.462Z,1.17
2022-12-26T19:27:06.510Z,1.60
2022-12-26T19:29:33.676Z,0.83
2022-12-26T19:32:00.803Z,0.73
2022-12-26T19:34:28.921Z,0.40
2022-12-26T19:36:56.020Z,0.50
2022-12-26T19:39:23.737Z,0.67
2022-12-26T19:41:50.811Z,0.60
2022-12-26T19:44:17.911Z,0.60
2022-12-26T19:46:44.972Z,0.50
2022-12-26T19:49:12.086Z,0.50
2022-12-26T19:51:39.395Z,0.30
2022-12-26T19:54:06.941Z,0.70
2022-12-26T19:56:34.105Z,0.40
2022-12-26T19:59:01.532Z,0.50
2022-12-26T20:01:30.693Z,0.47
2022-12-26T20:03:58.851Z,0.70
2022-12-26T20:06:26.863Z,0.90
2022-12-26T20:08:56.860Z,1.00
2022-12-26T20:11:25.857Z,0.40
2022-12-26T20:13:53.097Z,0.37
2022-12-26T20:16:54.592Z,0.40
2022-12-26T20:19:08.923Z,0.40
2022-12-26T20:21:36.111Z,0.40
2022-12-26T20:24:03.210Z,0.47
2022-12-26T20:26:30.352Z,0.40
2022-12-26T20:28:58.455Z,0.43
2022-12-26T20:31:25.601Z,0.40
2022-12-26T20:33:53.023Z,1.00
2022-12-26T20:36:21.327Z,0.60
2022-12-26T20:38:50.528Z,0.60
2022-12-26T20:41:17.758Z,0.87
2022-12-26T20:43:44.833Z,1.00
2022-12-26T20:46:16.418Z,1.07
2022-12-26T20:48:43.688Z,1.00
2022-12-26T20:51:12.875Z,0.80
2022-12-26T20:53:39.950Z,0.80
2022-12-26T20:56:07.563Z,0.70
2022-12-26T20:58:35.572Z,0.90
2022-12-26T21:01:06.016Z,1.00
2022-12-26T21:03:33.797Z,0.70
2022-12-26T21:06:11.253Z,0.90
2022-12-26T21:08:39.046Z,1.10
2022-12-26T21:11:25.224Z,1.30
2022-12-26T21:13:52.976Z,1.30
2022-12-26T21:16:21.771Z,1.40
2022-12-26T21:18:49.275Z,1.27
2022-12-26T21:21:23.763Z,1.07
2022-12-26T21:23:51.281Z,1.13
2022-12-26T21:26:18.400Z,1.17
2022-12-26T21:28:45.472Z,1.00
2022-12-26T21:31:12.612Z,1.00
2022-12-26T21:33:44.452Z,1.20
2022-12-26T21:36:12.593Z,1.30
2022-12-26T21:38:40.000Z,1.50
2022-12-26T21:41:08.176Z,1.10
2022-12-26T21:43:35.277Z,1.17
2022-12-26T21:46:07.101Z,1.40
2022-12-26T21:48:34.301Z,1.10
2022-12-26T21:51:01.460Z,1.20
2022-12-26T21:53:28.584Z,1.10
2022-12-26T21:55:55.659Z,1.20
2022-12-26T21:58:22.741Z,1.17
2022-12-26T22:00:49.783Z,1.37
2022-12-26T22:03:35.459Z,1.20
2022-12-26T22:06:02.542Z,1.10
2022-12-26T22:08:29.669Z,0.93
2022-12-26T22:11:15.388Z,1.20
2022-12-26T22:13:44.364Z,1.13
2022-12-26T22:16:12.117Z,1.00
2022-12-26T22:18:41.098Z,0.90
2022-12-26T22:21:14.119Z,0.77
2022-12-26T22:23:41.739Z,0.60
2022-12-26T22:26:10.344Z,0.80
2022-12-26T22:28:37.976Z,0.70
2022-12-26T22:31:05.148Z,0.77
2022-12-26T22:33:32.346Z,0.67
2022-12-26T22:36:09.522Z,0.80
2022-12-26T22:38:37.160Z,0.90
2022-12-26T22:41:05.146Z,0.70
2022-12-26T22:43:32.569Z,0.67
2022-12-26T22:45:59.745Z,0.80
2022-12-26T22:48:26.880Z,0.83
2022-12-26T22:50:55.095Z,0.90
2022-12-26T22:53:28.979Z,0.83
2022-12-26T22:56:00.334Z,1.20
2022-12-26T22:58:27.966Z,0.70
2022-12-26T23:00:55.107Z,0.90
2022-12-26T23:03:22.750Z,0.70
2022-12-26T23:05:50.103Z,0.60
2022-12-26T23:08:21.723Z,0.90
2022-12-26T23:10:49.098Z,0.90
2022-12-26T23:13:16.855Z,0.70
2022-12-26T23:15:50.823Z,1.10
2022-12-26T23:18:43.665Z,0.80
2022-12-26T23:21:39.308Z,1.20
2022-12-26T23:24:07.139Z,1.17
2022-12-26T23:26:34.260Z,1.00
2022-12-26T23:29:20.092Z,1.03
2022-12-26T23:31:47.121Z,1.10
2022-12-26T23:34:14.320Z,1.10
2022-12-26T23:36:41.466Z,0.87
2022-12-26T23:39:08.577Z,1.07
2022-12-26T23:41:35.746Z,0.73
2022-12-26T23:44:02.913Z,0.70
2022-12-26T23:46:29.991Z,0.73
2022-12-26T23:48:57.244Z,0.90
2022-12-26T23:51:24.402Z,0.80
2022-12-26T23:53:51.472Z,1.00
2022-12-26T23:56:18.537Z,0.70
2022-12-26T23:58:45.765Z,1.00
